Time;durP1;ratioP1;P1;durP2;ratioP2;P2;SDS_P1;SDS_P2;PMS_P1;PMS_P2;Temp;Humidity;BMP_temperature;BMP_pressure;BME280_temperature;BME280_humidity;BME280_pressure;Samples;Min_cycle;Max_cycle;Signal;HPM_P1;HPM_P2
2019/06/22 00:00:30;;;;;;;20.9;18.9;;;;;;;15.53;100;95471.8;;;;
2019/06/22 00:01:31;;;;;;;20.9;18.9;;;;;;;15.53;100;95471.8;;;;
2019/06/22 00:02:33;;;;;;;20.9;18.9;;;;;;;15.53;100;95471.8;;;;
2019/06/22 00:03:34;;;;;;;20.9;18.9;;;;;;;15.53;100;95471.8;;;;
2019/06/22 00:04:35;;;;;;;20.9;18.9;;;;;;;15.53;100;95471.8;;;;
2019/06/22 00:05:36;;;;;;;22.35;20.2;;;;;;;15.42;100;95464.64;;;;
2019/06/22 00:06:37;;;;;;;22.35;20.2;;;;;;;15.42;100;95464.64;;;;
2019/06/22 00:07:38;;;;;;;22.35;20.2;;;;;;;15.42;100;95464.64;;;;
2019/06/22 00:08:39;;;;;;;22.35;20.2;;;;;;;15.42;100;95464.64;;;;
2019/06/22 00:09:40;;;;;;;22.35;20.2;;;;;;;15.42;100;95464.64;;;;
2019/06/22 00:10:41;;;;;;;22.35;20.2;;;;;;;15.42;100;95464.64;;;;
2019/06/22 00:11:42;;;;;;;22.35;20.2;;;;;;;15.42;100;95464.64;;;;
2019/06/22 00:12:43;;;;;;;22.35;20.2;;;;;;;15.42;100;95464.64;;;;
2019/06/22 00:13:44;;;;;;;22.35;20.2;;;;;;;15.42;100;95464.64;;;;
2019/06/22 00:14:45;;;;;;;22.35;20.2;;;;;;;15.42;100;95464.64;;;;
2019/06/22 00:15:47;;;;;;;22.35;20.2;;;;;;;15.42;100;95464.64;;;;
2019/06/22 00:16:48;;;;;;;23.35;21.05;;;;;;;15.36;100;95446.62;;;;
2019/06/22 00:17:49;;;;;;;23.35;21.05;;;;;;;15.36;100;95446.62;;;;
2019/06/22 00:18:50;;;;;;;23.35;21.05;;;;;;;15.36;100;95446.62;;;;
2019/06/22 00:19:51;;;;;;;23.35;21.05;;;;;;;15.36;100;95446.62;;;;
2019/06/22 00:20:52;;;;;;;23.35;21.05;;;;;;;15.36;100;95446.62;;;;
2019/06/22 00:21:53;;;;;;;23.35;21.05;;;;;;;15.36;100;95446.62;;;;
2019/06/22 00:22:54;;;;;;;23.35;21.05;;;;;;;15.36;100;95446.62;;;;
2019/06/22 00:23:55;;;;;;;23.35;21.05;;;;;;;15.36;100;95446.62;;;;
2019/06/22 00:24:56;;;;;;;23.35;21.05;;;;;;;15.36;100;95446.62;;;;
2019/06/22 00:25:57;;;;;;;23.35;21.05;;;;;;;15.36;100;95446.62;;;;
2019/06/22 00:26:59;;;;;;;21.4;19.1;;;;;;;15.26;100;95440.26;;;;
2019/06/22 00:28:00;;;;;;;21.4;19.1;;;;;;;15.26;100;95440.26;;;;
2019/06/22 00:29:01;;;;;;;21.4;19.1;;;;;;;15.26;100;95440.26;;;;
2019/06/22 00:30:02;;;;;;;21.4;19.1;;;;;;;15.26;100;95440.26;;;;
2019/06/22 00:31:04;;;;;;;21.4;19.1;;;;;;;15.26;100;95440.26;;;;
2019/06/22 00:32:05;;;;;;;21.4;19.1;;;;;;;15.26;100;95440.26;;;;
2019/06/22 00:33:06;;;;;;;21.4;19.1;;;;;;;15.26;100;95440.26;;;;
2019/06/22 00:34:07;;;;;;;21.4;19.1;;;;;;;15.26;100;95440.26;;;;
2019/06/22 00:35:08;;;;;;;21.4;19.1;;;;;;;15.26;100;95440.26;;;;
2019/06/22 00:36:09;;;;;;;21.4;19.1;;;;;;;15.26;100;95440.26;;;;
2019/06/22 00:37:10;;;;;;;15.85;14.45;;;;;;;15.23;100;95430.33;;;;
2019/06/22 00:38:11;;;;;;;15.85;14.45;;;;;;;15.23;100;95430.33;;;;
2019/06/22 00:39:12;;;;;;;15.85;14.45;;;;;;;15.23;100;95430.33;;;;
2019/06/22 00:40:14;;;;;;;15.85;14.45;;;;;;;15.23;100;95430.33;;;;
2019/06/22 00:41:15;;;;;;;15.85;14.45;;;;;;;15.23;100;95430.33;;;;
2019/06/22 00:42:16;;;;;;;15.85;14.45;;;;;;;15.23;100;95430.33;;;;
2019/06/22 00:43:17;;;;;;;15.85;14.45;;;;;;;15.23;100;95430.33;;;;
2019/06/22 00:44:18;;;;;;;15.85;14.45;;;;;;;15.23;100;95430.33;;;;
2019/06/22 00:45:19;;;;;;;15.85;14.45;;;;;;;15.23;100;95430.33;;;;
2019/06/22 00:46:21;;;;;;;15.85;14.45;;;;;;;15.23;100;95430.33;;;;
2019/06/22 00:47:22;;;;;;;15.85;14.45;;;;;;;15.23;100;95430.33;;;;
2019/06/22 00:48:23;;;;;;;15.15;13.7;;;;;;;15.14;100;95418.7;;;;
2019/06/22 00:49:24;;;;;;;15.15;13.7;;;;;;;15.14;100;95418.7;;;;
2019/06/22 00:50:25;;;;;;;15.15;13.7;;;;;;;15.14;100;95418.7;;;;
2019/06/22 00:51:26;;;;;;;15.15;13.7;;;;;;;15.14;100;95418.7;;;;
2019/06/22 00:52:27;;;;;;;15.15;13.7;;;;;;;15.14;100;95418.7;;;;
2019/06/22 00:53:28;;;;;;;15.15;13.7;;;;;;;15.14;100;95418.7;;;;
2019/06/22 00:54:29;;;;;;;15.15;13.7;;;;;;;15.14;100;95418.7;;;;
2019/06/22 00:55:30;;;;;;;15.15;13.7;;;;;;;15.14;100;95418.7;;;;
2019/06/22 00:56:32;;;;;;;15.15;13.7;;;;;;;15.14;100;95418.7;;;;
2019/06/22 00:57:33;;;;;;;15.15;13.7;;;;;;;15.14;100;95418.7;;;;
2019/06/22 00:58:34;;;;;;;16.45;14.7;;;;;;;15.04;100;95401.76;;;;
2019/06/22 00:59:35;;;;;;;16.45;14.7;;;;;;;15.04;100;95401.76;;;;
2019/06/22 01:00:36;;;;;;;16.45;14.7;;;;;;;15.04;100;95401.76;;;;
2019/06/22 01:01:39;;;;;;;16.45;14.7;;;;;;;15.04;100;95401.76;;;;
2019/06/22 01:02:40;;;;;;;16.45;14.7;;;;;;;15.04;100;95401.76;;;;
2019/06/22 01:03:41;;;;;;;16.45;14.7;;;;;;;15.04;100;95401.76;;;;
2019/06/22 01:04:42;;;;;;;16.45;14.7;;;;;;;15.04;100;95401.76;;;;
2019/06/22 01:05:43;;;;;;;16.45;14.7;;;;;;;15.04;100;95401.76;;;;
2019/06/22 01:06:44;;;;;;;16.45;14.7;;;;;;;15.04;100;95401.76;;;;
2019/06/22 01:07:45;;;;;;;16.45;14.7;;;;;;;15.04;100;95401.76;;;;
2019/06/22 01:08:46;;;;;;;16.45;14.7;;;;;;;15.04;100;95401.76;;;;
2019/06/22 01:09:48;;;;;;;16.7;15.2;;;;;;;14.9;100;95392.94;;;;
2019/06/22 01:10:49;;;;;;;16.7;15.2;;;;;;;14.9;100;95392.94;;;;
2019/06/22 01:11:50;;;;;;;16.7;15.2;;;;;;;14.9;100;95392.94;;;;
2019/06/22 01:12:51;;;;;;;16.7;15.2;;;;;;;14.9;100;95392.94;;;;
2019/06/22 01:13:52;;;;;;;16.7;15.2;;;;;;;14.9;100;95392.94;;;;
2019/06/22 01:14:53;;;;;;;16.7;15.2;;;;;;;14.9;100;95392.94;;;;
2019/06/22 01:15:54;;;;;;;16.7;15.2;;;;;;;14.9;100;95392.94;;;;
2019/06/22 01:16:55;;;;;;;16.7;15.2;;;;;;;14.9;100;95392.94;;;;
2019/06/22 01:17:57;;;;;;;16.7;15.2;;;;;;;14.9;100;95392.94;;;;
2019/06/22 01:18:58;;;;;;;16.7;15.2;;;;;;;14.9;100;95392.94;;;;
2019/06/22 01:19:59;;;;;;;17.15;15.35;;;;;;;14.85;100;95400.53;;;;
2019/06/22 01:21:00;;;;;;;17.15;15.35;;;;;;;14.85;100;95400.53;;;;
2019/06/22 01:22:01;;;;;;;17.15;15.35;;;;;;;14.85;100;95400.53;;;;
2019/06/22 01:23:02;;;;;;;17.15;15.35;;;;;;;14.85;100;95400.53;;;;
2019/06/22 01:24:03;;;;;;;17.15;15.35;;;;;;;14.85;100;95400.53;;;;
2019/06/22 01:25:04;;;;;;;17.15;15.35;;;;;;;14.85;100;95400.53;;;;
2019/06/22 01:26:07;;;;;;;17.15;15.35;;;;;;;14.85;100;95400.53;;;;
2019/06/22 01:27:08;;;;;;;17.15;15.35;;;;;;;14.85;100;95400.53;;;;
2019/06/22 01:28:09;;;;;;;17.15;15.35;;;;;;;14.85;100;95400.53;;;;
2019/06/22 01:29:10;;;;;;;17.15;15.35;;;;;;;14.85;100;95400.53;;;;
2019/06/22 01:30:11;;;;;;;16.8;15.25;;;;;;;14.76;100;95389.03;;;;
2019/06/22 01:31:13;;;;;;;16.8;15.25;;;;;;;14.76;100;95389.03;;;;
2019/06/22 01:32:14;;;;;;;16.8;15.25;;;;;;;14.76;100;95389.03;;;;
2019/06/22 01:33:15;;;;;;;16.8;15.25;;;;;;;14.76;100;95389.03;;;;
2019/06/22 01:34:16;;;;;;;16.8;15.25;;;;;;;14.76;100;95389.03;;;;
2019/06/22 01:35:17;;;;;;;16.8;15.25;;;;;;;14.76;100;95389.03;;;;
2019/06/22 01:36:18;;;;;;;16.8;15.25;;;;;;;14.76;100;95389.03;;;;
2019/06/22 01:37:20;;;;;;;16.8;15.25;;;;;;;14.76;100;95389.03;;;;
2019/06/22 01:38:21;;;;;;;16.8;15.25;;;;;;;14.76;100;95389.03;;;;
2019/06/22 01:39:22;;;;;;;16.8;15.25;;;;;;;14.76;100;95389.03;;;;
2019/06/22 01:40:23;;;;;;;16.8;15.25;;;;;;;14.76;100;95389.03;;;;
2019/06/22 01:41:24;;;;;;;18.55;16.7;;;;;;;14.74;100;95385.33;;;;
2019/06/22 01:42:25;;;;;;;18.55;16.7;;;;;;;14.74;100;95385.33;;;;
2019/06/22 01:43:26;;;;;;;18.55;16.7;;;;;;;14.74;100;95385.33;;;;
2019/06/22 01:44:27;;;;;;;18.55;16.7;;;;;;;14.74;100;95385.33;;;;
2019/06/22 01:45:29;;;;;;;18.55;16.7;;;;;;;14.74;100;95385.33;;;;
2019/06/22 01:46:30;;;;;;;18.55;16.7;;;;;;;14.74;100;95385.33;;;;
2019/06/22 01:47:31;;;;;;;18.55;16.7;;;;;;;14.74;100;95385.33;;;;
2019/06/22 01:48:32;;;;;;;18.55;16.7;;;;;;;14.74;100;95385.33;;;;
2019/06/22 01:49:34;;;;;;;18.55;16.7;;;;;;;14.74;100;95385.33;;;;
2019/06/22 01:50:35;;;;;;;18.55;16.7;;;;;;;14.74;100;95385.33;;;;
2019/06/22 01:51:36;;;;;;;19.8;17.85;;;;;;;14.64;100;95373.86;;;;
2019/06/22 01:52:37;;;;;;;19.8;17.85;;;;;;;14.64;100;95373.86;;;;
2019/06/22 01:53:38;;;;;;;19.8;17.85;;;;;;;14.64;100;95373.86;;;;
2019/06/22 01:54:39;;;;;;;19.8;17.85;;;;;;;14.64;100;95373.86;;;;
2019/06/22 01:55:40;;;;;;;19.8;17.85;;;;;;;14.64;100;95373.86;;;;
2019/06/22 01:56:41;;;;;;;19.8;17.85;;;;;;;14.64;100;95373.86;;;;
2019/06/22 01:57:43;;;;;;;19.8;17.85;;;;;;;14.64;100;95373.86;;;;
2019/06/22 01:58:44;;;;;;;19.8;17.85;;;;;;;14.64;100;95373.86;;;;
2019/06/22 01:59:45;;;;;;;19.8;17.85;;;;;;;14.64;100;95373.86;;;;
2019/06/22 02:00:46;;;;;;;19.8;17.85;;;;;;;14.64;100;95373.86;;;;
2019/06/22 02:01:47;;;;;;;19.8;17.85;;;;;;;14.64;100;95373.86;;;;
2019/06/22 02:02:48;;;;;;;22.85;20.4;;;;;;;14.64;100;95365.7;;;;
2019/06/22 02:03:50;;;;;;;22.85;20.4;;;;;;;14.64;100;95365.7;;;;
2019/06/22 02:04:51;;;;;;;22.85;20.4;;;;;;;14.64;100;95365.7;;;;
2019/06/22 02:05:52;;;;;;;22.85;20.4;;;;;;;14.64;100;95365.7;;;;
2019/06/22 02:06:53;;;;;;;22.85;20.4;;;;;;;14.64;100;95365.7;;;;
2019/06/22 02:07:54;;;;;;;22.85;20.4;;;;;;;14.64;100;95365.7;;;;
2019/06/22 02:08:55;;;;;;;22.85;20.4;;;;;;;14.64;100;95365.7;;;;
2019/06/22 02:09:57;;;;;;;22.85;20.4;;;;;;;14.64;100;95365.7;;;;
2019/06/22 02:10:58;;;;;;;22.85;20.4;;;;;;;14.64;100;95365.7;;;;
2019/06/22 02:11:59;;;;;;;22.85;20.4;;;;;;;14.64;100;95365.7;;;;
2019/06/22 02:13:00;;;;;;;29.3;24.8;;;;;;;14.61;100;95369.33;;;;
2019/06/22 02:14:01;;;;;;;29.3;24.8;;;;;;;14.61;100;95369.33;;;;
2019/06/22 02:15:03;;;;;;;29.3;24.8;;;;;;;14.61;100;95369.33;;;;
2019/06/22 02:16:05;;;;;;;29.3;24.8;;;;;;;14.61;100;95369.33;;;;
2019/06/22 02:17:06;;;;;;;29.3;24.8;;;;;;;14.61;100;95369.33;;;;
2019/06/22 02:18:07;;;;;;;29.3;24.8;;;;;;;14.61;100;95369.33;;;;
2019/06/22 02:19:08;;;;;;;29.3;24.8;;;;;;;14.61;100;95369.33;;;;
2019/06/22 02:20:09;;;;;;;29.3;24.8;;;;;;;14.61;100;95369.33;;;;
2019/06/22 02:21:11;;;;;;;29.3;24.8;;;;;;;14.61;100;95369.33;;;;
2019/06/22 02:22:12;;;;;;;29.3;24.8;;;;;;;14.61;100;95369.33;;;;
2019/06/22 02:23:13;;;;;;;32.2;26.3;;;;;;;14.65;100;95376.31;;;;
2019/06/22 02:24:14;;;;;;;32.2;26.3;;;;;;;14.65;100;95376.31;;;;
2019/06/22 02:25:15;;;;;;;32.2;26.3;;;;;;;14.65;100;95376.31;;;;
2019/06/22 02:26:16;;;;;;;32.2;26.3;;;;;;;14.65;100;95376.31;;;;
2019/06/22 02:27:17;;;;;;;32.2;26.3;;;;;;;14.65;100;95376.31;;;;
2019/06/22 02:28:18;;;;;;;32.2;26.3;;;;;;;14.65;100;95376.31;;;;
2019/06/22 02:29:19;;;;;;;32.2;26.3;;;;;;;14.65;100;95376.31;;;;
2019/06/22 02:30:21;;;;;;;32.2;26.3;;;;;;;14.65;100;95376.31;;;;
2019/06/22 02:31:22;;;;;;;32.2;26.3;;;;;;;14.65;100;95376.31;;;;
2019/06/22 02:32:23;;;;;;;32.2;26.3;;;;;;;14.65;100;95376.31;;;;
2019/06/22 02:33:24;;;;;;;32.2;26.3;;;;;;;14.65;100;95376.31;;;;
2019/06/22 02:34:25;;;;;;;33.39999;28.05;;;;;;;14.68;100;95374.01;;;;
2019/06/22 02:35:26;;;;;;;33.39999;28.05;;;;;;;14.68;100;95374.01;;;;
2019/06/22 02:36:28;;;;;;;33.39999;28.05;;;;;;;14.68;100;95374.01;;;;
2019/06/22 02:37:29;;;;;;;33.39999;28.05;;;;;;;14.68;100;95374.01;;;;
2019/06/22 02:38:30;;;;;;;33.39999;28.05;;;;;;;14.68;100;95374.01;;;;
2019/06/22 02:39:31;;;;;;;33.39999;28.05;;;;;;;14.68;100;95374.01;;;;
2019/06/22 02:40:32;;;;;;;33.39999;28.05;;;;;;;14.68;100;95374.01;;;;
2019/06/22 02:41:33;;;;;;;33.39999;28.05;;;;;;;14.68;100;95374.01;;;;
2019/06/22 02:42:35;;;;;;;33.39999;28.05;;;;;;;14.68;100;95374.01;;;;
2019/06/22 02:43:36;;;;;;;33.39999;28.05;;;;;;;14.68;100;95374.01;;;;
2019/06/22 02:44:37;;;;;;;31.5;26.55;;;;;;;14.75;100;95370.53;;;;
2019/06/22 02:45:38;;;;;;;31.5;26.55;;;;;;;14.75;100;95370.53;;;;
2019/06/22 02:46:39;;;;;;;31.5;26.55;;;;;;;14.75;100;95370.53;;;;
2019/06/22 02:47:41;;;;;;;31.5;26.55;;;;;;;14.75;100;95370.53;;;;
2019/06/22 02:48:42;;;;;;;31.5;26.55;;;;;;;14.75;100;95370.53;;;;
2019/06/22 02:49:43;;;;;;;31.5;26.55;;;;;;;14.75;100;95370.53;;;;
2019/06/22 02:50:44;;;;;;;31.5;26.55;;;;;;;14.75;100;95370.53;;;;
2019/06/22 02:51:45;;;;;;;31.5;26.55;;;;;;;14.75;100;95370.53;;;;
2019/06/22 02:52:46;;;;;;;31.5;26.55;;;;;;;14.75;100;95370.53;;;;
2019/06/22 02:53:47;;;;;;;31.5;26.55;;;;;;;14.75;100;95370.53;;;;
2019/06/22 02:54:48;;;;;;;31.5;26.55;;;;;;;14.75;100;95370.53;;;;
2019/06/22 02:55:49;;;;;;;28.25;24.8;;;;;;;14.71;100;95373.63;;;;
2019/06/22 02:56:51;;;;;;;28.25;24.8;;;;;;;14.71;100;95373.63;;;;
2019/06/22 02:57:52;;;;;;;28.25;24.8;;;;;;;14.71;100;95373.63;;;;
2019/06/22 02:58:53;;;;;;;28.25;24.8;;;;;;;14.71;100;95373.63;;;;
2019/06/22 02:59:54;;;;;;;28.25;24.8;;;;;;;14.71;100;95373.63;;;;
2019/06/22 03:00:55;;;;;;;28.25;24.8;;;;;;;14.71;100;95373.63;;;;
2019/06/22 03:01:57;;;;;;;28.25;24.8;;;;;;;14.71;100;95373.63;;;;
2019/06/22 03:02:58;;;;;;;28.25;24.8;;;;;;;14.71;100;95373.63;;;;
2019/06/22 03:03:59;;;;;;;28.25;24.8;;;;;;;14.71;100;95373.63;;;;
2019/06/22 03:05:00;;;;;;;28.25;24.8;;;;;;;14.71;100;95373.63;;;;
2019/06/22 03:06:01;;;;;;;30.6;24.95;;;;;;;14.67;100;95371.97;;;;
2019/06/22 03:07:02;;;;;;;30.6;24.95;;;;;;;14.67;100;95371.97;;;;
2019/06/22 03:08:04;;;;;;;30.6;24.95;;;;;;;14.67;100;95371.97;;;;
2019/06/22 03:09:05;;;;;;;30.6;24.95;;;;;;;14.67;100;95371.97;;;;
2019/06/22 03:10:06;;;;;;;30.6;24.95;;;;;;;14.67;100;95371.97;;;;
2019/06/22 03:11:08;;;;;;;30.6;24.95;;;;;;;14.67;100;95371.97;;;;
2019/06/22 03:12:09;;;;;;;30.6;24.95;;;;;;;14.67;100;95371.97;;;;
2019/06/22 03:13:10;;;;;;;30.6;24.95;;;;;;;14.67;100;95371.97;;;;
2019/06/22 03:14:11;;;;;;;30.6;24.95;;;;;;;14.67;100;95371.97;;;;
2019/06/22 03:15:12;;;;;;;30.6;24.95;;;;;;;14.67;100;95371.97;;;;
2019/06/22 03:16:13;;;;;;;27.35;24.1;;;;;;;14.6;100;95364.15;;;;
2019/06/22 03:17:14;;;;;;;27.35;24.1;;;;;;;14.6;100;95364.15;;;;
2019/06/22 03:18:15;;;;;;;27.35;24.1;;;;;;;14.6;100;95364.15;;;;
2019/06/22 03:19:17;;;;;;;27.35;24.1;;;;;;;14.6;100;95364.15;;;;
2019/06/22 03:20:18;;;;;;;27.35;24.1;;;;;;;14.6;100;95364.15;;;;
2019/06/22 03:21:19;;;;;;;27.35;24.1;;;;;;;14.6;100;95364.15;;;;
2019/06/22 03:22:20;;;;;;;27.35;24.1;;;;;;;14.6;100;95364.15;;;;
2019/06/22 03:23:21;;;;;;;27.35;24.1;;;;;;;14.6;100;95364.15;;;;
2019/06/22 03:24:22;;;;;;;27.35;24.1;;;;;;;14.6;100;95364.15;;;;
2019/06/22 03:25:23;;;;;;;27.35;24.1;;;;;;;14.6;100;95364.15;;;;
2019/06/22 03:26:24;;;;;;;27.35;24.1;;;;;;;14.6;100;95364.15;;;;
2019/06/22 03:27:25;;;;;;;32.2;26.6;;;;;;;14.65;100;95360.53;;;;
2019/06/22 03:28:26;;;;;;;32.2;26.6;;;;;;;14.65;100;95360.53;;;;
2019/06/22 03:29:27;;;;;;;32.2;26.6;;;;;;;14.65;100;95360.53;;;;
2019/06/22 03:30:29;;;;;;;32.2;26.6;;;;;;;14.65;100;95360.53;;;;
2019/06/22 03:31:42;;;;;;;32.2;26.6;;;;;;;14.65;100;95360.53;;;;
2019/06/22 03:32:44;;;;;;;32.2;26.6;;;;;;;14.65;100;95360.53;;;;
2019/06/22 03:33:45;;;;;;;32.2;26.6;;;;;;;14.65;100;95360.53;;;;
2019/06/22 03:34:46;;;;;;;32.2;26.6;;;;;;;14.65;100;95360.53;;;;
2019/06/22 03:35:47;;;;;;;32.2;26.6;;;;;;;14.65;100;95360.53;;;;
2019/06/22 03:36:48;;;;;;;32.2;26.6;;;;;;;14.65;100;95360.53;;;;
2019/06/22 03:37:49;;;;;;;32.74999;26.95;;;;;;;14.73;100;95363.73;;;;
2019/06/22 03:38:50;;;;;;;32.74999;26.95;;;;;;;14.73;100;95363.73;;;;
2019/06/22 03:39:51;;;;;;;32.74999;26.95;;;;;;;14.73;100;95363.73;;;;
2019/06/22 03:40:52;;;;;;;32.74999;26.95;;;;;;;14.73;100;95363.73;;;;
2019/06/22 03:41:53;;;;;;;32.74999;26.95;;;;;;;14.73;100;95363.73;;;;
2019/06/22 03:42:54;;;;;;;32.74999;26.95;;;;;;;14.73;100;95363.73;;;;
2019/06/22 03:43:55;;;;;;;32.74999;26.95;;;;;;;14.73;100;95363.73;;;;
2019/06/22 03:44:56;;;;;;;32.74999;26.95;;;;;;;14.73;100;95363.73;;;;
2019/06/22 03:45:57;;;;;;;32.74999;26.95;;;;;;;14.73;100;95363.73;;;;
2019/06/22 03:46:58;;;;;;;32.74999;26.95;;;;;;;14.73;100;95363.73;;;;
2019/06/22 03:48:00;;;;;;;35.1;29.5;;;;;;;14.94;100;95370.54;;;;
2019/06/22 03:49:01;;;;;;;35.1;29.5;;;;;;;14.94;100;95370.54;;;;
2019/06/22 03:50:02;;;;;;;35.1;29.5;;;;;;;14.94;100;95370.54;;;;
2019/06/22 03:51:03;;;;;;;35.1;29.5;;;;;;;14.94;100;95370.54;;;;
2019/06/22 03:52:04;;;;;;;35.1;29.5;;;;;;;14.94;100;95370.54;;;;
2019/06/22 03:53:06;;;;;;;35.1;29.5;;;;;;;14.94;100;95370.54;;;;
2019/06/22 03:54:07;;;;;;;35.1;29.5;;;;;;;14.94;100;95370.54;;;;
2019/06/22 03:55:08;;;;;;;35.1;29.5;;;;;;;14.94;100;95370.54;;;;
2019/06/22 03:56:09;;;;;;;35.1;29.5;;;;;;;14.94;100;95370.54;;;;
2019/06/22 03:57:10;;;;;;;35.1;29.5;;;;;;;14.94;100;95370.54;;;;
2019/06/22 03:58:11;;;;;;;35.1;29.5;;;;;;;14.94;100;95370.54;;;;
2019/06/22 03:59:12;;;;;;;32.5;27.9;;;;;;;15.15;100;95368.24;;;;
2019/06/22 04:00:13;;;;;;;32.5;27.9;;;;;;;15.15;100;95368.24;;;;
2019/06/22 04:01:15;;;;;;;32.5;27.9;;;;;;;15.15;100;95368.24;;;;
2019/06/22 04:02:16;;;;;;;32.5;27.9;;;;;;;15.15;100;95368.24;;;;
2019/06/22 04:03:17;;;;;;;32.5;27.9;;;;;;;15.15;100;95368.24;;;;
2019/06/22 04:04:18;;;;;;;32.5;27.9;;;;;;;15.15;100;95368.24;;;;
2019/06/22 04:05:19;;;;;;;32.5;27.9;;;;;;;15.15;100;95368.24;;;;
2019/06/22 04:06:20;;;;;;;32.5;27.9;;;;;;;15.15;100;95368.24;;;;
2019/06/22 04:07:21;;;;;;;32.5;27.9;;;;;;;15.15;100;95368.24;;;;
2019/06/22 04:08:22;;;;;;;32.5;27.9;;;;;;;15.15;100;95368.24;;;;
2019/06/22 04:09:24;;;;;;;27.5;24.65;;;;;;;15.38;100;95380.11;;;;
2019/06/22 04:10:25;;;;;;;27.5;24.65;;;;;;;15.38;100;95380.11;;;;
2019/06/22 04:11:26;;;;;;;27.5;24.65;;;;;;;15.38;100;95380.11;;;;
2019/06/22 04:12:27;;;;;;;27.5;24.65;;;;;;;15.38;100;95380.11;;;;
2019/06/22 04:13:28;;;;;;;27.5;24.65;;;;;;;15.38;100;95380.11;;;;
2019/06/22 04:14:29;;;;;;;27.5;24.65;;;;;;;15.38;100;95380.11;;;;
2019/06/22 04:15:30;;;;;;;27.5;24.65;;;;;;;15.38;100;95380.11;;;;
2019/06/22 04:16:31;;;;;;;27.5;24.65;;;;;;;15.38;100;95380.11;;;;
2019/06/22 04:17:32;;;;;;;27.5;24.65;;;;;;;15.38;100;95380.11;;;;
2019/06/22 04:18:33;;;;;;;27.5;24.65;;;;;;;15.38;100;95380.11;;;;
2019/06/22 04:19:34;;;;;;;27.5;24.65;;;;;;;15.38;100;95380.11;;;;
2019/06/22 04:20:36;;;;;;;25.7;23;;;;;;;15.54;100;95368.26;;;;
2019/06/22 04:21:37;;;;;;;25.7;23;;;;;;;15.54;100;95368.26;;;;
2019/06/22 04:22:38;;;;;;;25.7;23;;;;;;;15.54;100;95368.26;;;;
2019/06/22 04:23:39;;;;;;;25.7;23;;;;;;;15.54;100;95368.26;;;;
2019/06/22 04:24:40;;;;;;;25.7;23;;;;;;;15.54;100;95368.26;;;;
2019/06/22 04:25:41;;;;;;;25.7;23;;;;;;;15.54;100;95368.26;;;;
2019/06/22 04:26:42;;;;;;;25.7;23;;;;;;;15.54;100;95368.26;;;;
2019/06/22 04:27:43;;;;;;;25.7;23;;;;;;;15.54;100;95368.26;;;;
2019/06/22 04:28:44;;;;;;;25.7;23;;;;;;;15.54;100;95368.26;;;;
2019/06/22 04:29:45;;;;;;;25.7;23;;;;;;;15.54;100;95368.26;;;;
2019/06/22 04:30:46;;;;;;;27.1;23.85;;;;;;;15.78;100;95374.47;;;;
2019/06/22 04:31:47;;;;;;;27.1;23.85;;;;;;;15.78;100;95374.47;;;;
2019/06/22 04:32:48;;;;;;;27.1;23.85;;;;;;;15.78;100;95374.47;;;;
2019/06/22 04:33:49;;;;;;;27.1;23.85;;;;;;;15.78;100;95374.47;;;;
2019/06/22 04:34:50;;;;;;;27.1;23.85;;;;;;;15.78;100;95374.47;;;;
2019/06/22 04:35:51;;;;;;;27.1;23.85;;;;;;;15.78;100;95374.47;;;;
2019/06/22 04:36:53;;;;;;;27.1;23.85;;;;;;;15.78;100;95374.47;;;;
2019/06/22 04:37:54;;;;;;;27.1;23.85;;;;;;;15.78;100;95374.47;;;;
2019/06/22 04:38:55;;;;;;;27.1;23.85;;;;;;;15.78;100;95374.47;;;;
2019/06/22 04:39:56;;;;;;;27.1;23.85;;;;;;;15.78;100;95374.47;;;;
2019/06/22 04:40:57;;;;;;;23.5;21.05;;;;;;;16.07;100;95373.91;;;;
2019/06/22 04:41:58;;;;;;;23.5;21.05;;;;;;;16.07;100;95373.91;;;;
2019/06/22 04:42:59;;;;;;;23.5;21.05;;;;;;;16.07;100;95373.91;;;;
2019/06/22 04:44:00;;;;;;;23.5;21.05;;;;;;;16.07;100;95373.91;;;;
2019/06/22 04:45:01;;;;;;;23.5;21.05;;;;;;;16.07;100;95373.91;;;;
2019/06/22 04:46:03;;;;;;;23.5;21.05;;;;;;;16.07;100;95373.91;;;;
2019/06/22 04:47:04;;;;;;;23.5;21.05;;;;;;;16.07;100;95373.91;;;;
2019/06/22 04:48:05;;;;;;;23.5;21.05;;;;;;;16.07;100;95373.91;;;;
2019/06/22 04:49:06;;;;;;;23.5;21.05;;;;;;;16.07;100;95373.91;;;;
2019/06/22 04:50:07;;;;;;;23.5;21.05;;;;;;;16.07;100;95373.91;;;;
2019/06/22 04:51:09;;;;;;;23.5;21.05;;;;;;;16.07;100;95373.91;;;;
2019/06/22 04:52:10;;;;;;;22.05;19.9;;;;;;;16.39;100;95371.8;;;;
2019/06/22 04:53:11;;;;;;;22.05;19.9;;;;;;;16.39;100;95371.8;;;;
2019/06/22 04:54:12;;;;;;;22.05;19.9;;;;;;;16.39;100;95371.8;;;;
2019/06/22 04:55:13;;;;;;;22.05;19.9;;;;;;;16.39;100;95371.8;;;;
2019/06/22 04:56:14;;;;;;;22.05;19.9;;;;;;;16.39;100;95371.8;;;;
2019/06/22 04:57:15;;;;;;;22.05;19.9;;;;;;;16.39;100;95371.8;;;;
2019/06/22 04:58:17;;;;;;;22.05;19.9;;;;;;;16.39;100;95371.8;;;;
2019/06/22 04:59:18;;;;;;;22.05;19.9;;;;;;;16.39;100;95371.8;;;;
2019/06/22 05:00:19;;;;;;;22.05;19.9;;;;;;;16.39;100;95371.8;;;;
2019/06/22 05:01:20;;;;;;;22.05;19.9;;;;;;;16.39;100;95371.8;;;;
2019/06/22 05:02:21;;;;;;;18.8;16.8;;;;;;;16.71;100;95371.88;;;;
2019/06/22 05:03:22;;;;;;;18.8;16.8;;;;;;;16.71;100;95371.88;;;;
2019/06/22 05:04:23;;;;;;;18.8;16.8;;;;;;;16.71;100;95371.88;;;;
2019/06/22 05:05:24;;;;;;;18.8;16.8;;;;;;;16.71;100;95371.88;;;;
2019/06/22 05:06:25;;;;;;;18.8;16.8;;;;;;;16.71;100;95371.88;;;;
2019/06/22 05:07:31;;;;;;;18.8;16.8;;;;;;;16.71;100;95371.88;;;;
2019/06/22 05:08:32;;;;;;;18.8;16.8;;;;;;;16.71;100;95371.88;;;;
2019/06/22 05:09:33;;;;;;;18.8;16.8;;;;;;;16.71;100;95371.88;;;;
2019/06/22 05:10:34;;;;;;;18.8;16.8;;;;;;;16.71;100;95371.88;;;;
2019/06/22 05:11:35;;;;;;;18.8;16.8;;;;;;;16.71;100;95371.88;;;;
2019/06/22 05:12:36;;;;;;;18.75;16.85;;;;;;;17.09;100;95373.81;;;;
2019/06/22 05:13:37;;;;;;;18.75;16.85;;;;;;;17.09;100;95373.81;;;;
2019/06/22 05:14:39;;;;;;;18.75;16.85;;;;;;;17.09;100;95373.81;;;;
2019/06/22 05:15:40;;;;;;;18.75;16.85;;;;;;;17.09;100;95373.81;;;;
2019/06/22 05:16:41;;;;;;;18.75;16.85;;;;;;;17.09;100;95373.81;;;;
2019/06/22 05:17:42;;;;;;;18.75;16.85;;;;;;;17.09;100;95373.81;;;;
2019/06/22 05:18:43;;;;;;;18.75;16.85;;;;;;;17.09;100;95373.81;;;;
2019/06/22 05:19:44;;;;;;;18.75;16.85;;;;;;;17.09;100;95373.81;;;;
2019/06/22 05:20:45;;;;;;;18.75;16.85;;;;;;;17.09;100;95373.81;;;;
2019/06/22 05:21:46;;;;;;;18.75;16.85;;;;;;;17.09;100;95373.81;;;;
2019/06/22 05:22:47;;;;;;;18.75;16.85;;;;;;;17.09;100;95373.81;;;;
2019/06/22 05:23:48;;;;;;;16.5;15;;;;;;;17.61;100;95376.05;;;;
2019/06/22 05:24:49;;;;;;;16.5;15;;;;;;;17.61;100;95376.05;;;;
2019/06/22 05:25:50;;;;;;;16.5;15;;;;;;;17.61;100;95376.05;;;;
2019/06/22 05:26:51;;;;;;;16.5;15;;;;;;;17.61;100;95376.05;;;;
2019/06/22 05:27:52;;;;;;;16.5;15;;;;;;;17.61;100;95376.05;;;;
2019/06/22 05:28:53;;;;;;;16.5;15;;;;;;;17.61;100;95376.05;;;;
2019/06/22 05:29:55;;;;;;;16.5;15;;;;;;;17.61;100;95376.05;;;;
2019/06/22 05:30:56;;;;;;;16.5;15;;;;;;;17.61;100;95376.05;;;;
2019/06/22 05:31:57;;;;;;;16.5;15;;;;;;;17.61;100;95376.05;;;;
2019/06/22 05:32:58;;;;;;;16.5;15;;;;;;;17.61;100;95376.05;;;;
2019/06/22 05:33:59;;;;;;;15.1;13.65;;;;;;;18.28;100;95360.89;;;;
2019/06/22 05:35:00;;;;;;;15.1;13.65;;;;;;;18.28;100;95360.89;;;;
2019/06/22 05:36:01;;;;;;;15.1;13.65;;;;;;;18.28;100;95360.89;;;;
2019/06/22 05:37:02;;;;;;;15.1;13.65;;;;;;;18.28;100;95360.89;;;;
2019/06/22 05:38:04;;;;;;;15.1;13.65;;;;;;;18.28;100;95360.89;;;;
2019/06/22 05:39:05;;;;;;;15.1;13.65;;;;;;;18.28;100;95360.89;;;;
2019/06/22 05:40:07;;;;;;;15.1;13.65;;;;;;;18.28;100;95360.89;;;;
2019/06/22 05:41:08;;;;;;;15.1;13.65;;;;;;;18.28;100;95360.89;;;;
2019/06/22 05:42:09;;;;;;;15.1;13.65;;;;;;;18.28;100;95360.89;;;;
2019/06/22 05:43:10;;;;;;;15.1;13.65;;;;;;;18.28;100;95360.89;;;;
2019/06/22 05:44:12;;;;;;;15.1;13.65;;;;;;;18.28;100;95360.89;;;;
2019/06/22 05:45:13;;;;;;;10.75;9.85;;;;;;;19.12;100;95363.89;;;;
2019/06/22 05:46:14;;;;;;;10.75;9.85;;;;;;;19.12;100;95363.89;;;;
2019/06/22 05:47:15;;;;;;;10.75;9.85;;;;;;;19.12;100;95363.89;;;;
2019/06/22 05:48:16;;;;;;;10.75;9.85;;;;;;;19.12;100;95363.89;;;;
2019/06/22 05:49:17;;;;;;;10.75;9.85;;;;;;;19.12;100;95363.89;;;;
2019/06/22 05:50:18;;;;;;;10.75;9.85;;;;;;;19.12;100;95363.89;;;;
2019/06/22 05:51:20;;;;;;;10.75;9.85;;;;;;;19.12;100;95363.89;;;;
2019/06/22 05:52:21;;;;;;;10.75;9.85;;;;;;;19.12;100;95363.89;;;;
2019/06/22 05:53:22;;;;;;;10.75;9.85;;;;;;;19.12;100;95363.89;;;;
2019/06/22 05:54:23;;;;;;;10.75;9.85;;;;;;;19.12;100;95363.89;;;;
2019/06/22 05:55:24;;;;;;;11.1;10.1;;;;;;;19.24;100;95362.95;;;;
2019/06/22 05:56:25;;;;;;;11.1;10.1;;;;;;;19.24;100;95362.95;;;;
2019/06/22 05:57:26;;;;;;;11.1;10.1;;;;;;;19.24;100;95362.95;;;;
2019/06/22 05:58:27;;;;;;;11.1;10.1;;;;;;;19.24;100;95362.95;;;;
2019/06/22 05:59:28;;;;;;;11.1;10.1;;;;;;;19.24;100;95362.95;;;;
2019/06/22 06:00:29;;;;;;;11.1;10.1;;;;;;;19.24;100;95362.95;;;;
2019/06/22 06:01:31;;;;;;;11.1;10.1;;;;;;;19.24;100;95362.95;;;;
2019/06/22 06:02:32;;;;;;;11.1;10.1;;;;;;;19.24;100;95362.95;;;;
2019/06/22 06:03:33;;;;;;;11.1;10.1;;;;;;;19.24;100;95362.95;;;;
2019/06/22 06:04:34;;;;;;;11.1;10.1;;;;;;;19.24;100;95362.95;;;;
2019/06/22 06:05:35;;;;;;;13;11.95;;;;;;;19.18;100;95341.24;;;;
2019/06/22 06:06:36;;;;;;;13;11.95;;;;;;;19.18;100;95341.24;;;;
2019/06/22 06:07:37;;;;;;;13;11.95;;;;;;;19.18;100;95341.24;;;;